Terminal Aerodrome Forecast
Issued by NWS

Home | Current Version | Previous Version | Text Only | Print | Product List | Glossary On
Versions: 1 2 3 4 5 6 7 8 9 10 11 12 13 14 15 16 17 18 19 20 21 22 23 24 25
000
FTUS46 KEKA 200559
TAFCEC
TAF
KCEC 200559Z 2006/2106 17015G23KT P6SM -RA FEW025 OVC050
     FM200700 17025G33KT 4SM -RA BR FEW025 OVC050
     FM201000 17019G27KT 3SM RA BR FEW010 SCT025 OVC035
     FM201400 18013G21KT 4SM -RA BR FEW015 SCT025 OVC035
     FM201800 18012KT 6SM -RA SCT025 OVC035=

USA.gov is the U.S. government's official web portal to all federal, state and local government web resources and services.